sensor_id;sensor_type;location;lat;lon;timestamp;temperature;humidity
23147;DHT22;11742;53.532;-1.478;2022-12-18T00:00:40;7.50;86.20
23147;DHT22;11742;53.532;-1.478;2022-12-18T00:03:06;7.50;86.20
23147;DHT22;11742;53.532;-1.478;2022-12-18T00:05:32;7.40;86.10
23147;DHT22;11742;53.532;-1.478;2022-12-18T00:07:57;7.40;86.20
23147;DHT22;11742;53.532;-1.478;2022-12-18T00:10:23;7.40;86.20
23147;DHT22;11742;53.532;-1.478;2022-12-18T00:12:48;7.40;86.10
23147;DHT22;11742;53.532;-1.478;2022-12-18T00:15:14;7.40;86.10
23147;DHT22;11742;53.532;-1.478;2022-12-18T00:17:40;7.40;86.20
23147;DHT22;11742;53.532;-1.478;2022-12-18T00:20:06;7.40;86.10
23147;DHT22;11742;53.532;-1.478;2022-12-18T00:22:32;7.40;86.10
23147;DHT22;11742;53.532;-1.478;2022-12-18T00:24:57;7.40;86.10
23147;DHT22;11742;53.532;-1.478;2022-12-18T00:27:23;7.40;86.10
23147;DHT22;11742;53.532;-1.478;2022-12-18T00:29:48;7.40;86.20
23147;DHT22;11742;53.532;-1.478;2022-12-18T00:32:14;7.40;86.10
23147;DHT22;11742;53.532;-1.478;2022-12-18T00:34:40;7.40;86.10
23147;DHT22;11742;53.532;-1.478;2022-12-18T00:37:05;7.40;86.00
23147;DHT22;11742;53.532;-1.478;2022-12-18T00:39:31;7.40;86.00
23147;DHT22;11742;53.532;-1.478;2022-12-18T00:41:57;7.30;85.90
23147;DHT22;11742;53.532;-1.478;2022-12-18T00:44:41;7.30;86.00
23147;DHT22;11742;53.532;-1.478;2022-12-18T00:47:07;7.30;86.00
23147;DHT22;11742;53.532;-1.478;2022-12-18T00:49:32;7.30;85.90
23147;DHT22;11742;53.532;-1.478;2022-12-18T00:51:58;7.30;85.90
23147;DHT22;11742;53.532;-1.478;2022-12-18T00:54:24;7.30;85.80
23147;DHT22;11742;53.532;-1.478;2022-12-18T00:56:49;7.30;85.80
23147;DHT22;11742;53.532;-1.478;2022-12-18T00:59:17;7.30;85.80
23147;DHT22;11742;53.532;-1.478;2022-12-18T01:01:43;7.30;85.80
23147;DHT22;11742;53.532;-1.478;2022-12-18T01:04:08;7.30;85.70
23147;DHT22;11742;53.532;-1.478;2022-12-18T01:06:34;7.30;85.80
23147;DHT22;11742;53.532;-1.478;2022-12-18T01:09:00;7.30;85.70
23147;DHT22;11742;53.532;-1.478;2022-12-18T01:11:26;7.30;85.60
23147;DHT22;11742;53.532;-1.478;2022-12-18T01:13:53;7.20;85.60
23147;DHT22;11742;53.532;-1.478;2022-12-18T01:16:19;7.20;85.50
23147;DHT22;11742;53.532;-1.478;2022-12-18T01:18:45;7.20;85.40
23147;DHT22;11742;53.532;-1.478;2022-12-18T01:21:13;7.20;85.30
23147;DHT22;11742;53.532;-1.478;2022-12-18T01:23:39;7.20;85.30
23147;DHT22;11742;53.532;-1.478;2022-12-18T01:26:13;7.20;85.20
23147;DHT22;11742;53.532;-1.478;2022-12-18T01:28:39;7.20;85.10
23147;DHT22;11742;53.532;-1.478;2022-12-18T01:31:22;7.10;85.10
23147;DHT22;11742;53.532;-1.478;2022-12-18T01:33:49;7.20;85.10
23147;DHT22;11742;53.532;-1.478;2022-12-18T01:36:18;7.10;85.10
23147;DHT22;11742;53.532;-1.478;2022-12-18T01:38:45;7.10;85.20
23147;DHT22;11742;53.532;-1.478;2022-12-18T01:41:11;7.10;85.20
23147;DHT22;11742;53.532;-1.478;2022-12-18T01:44:46;7.10;85.30
23147;DHT22;11742;53.532;-1.478;2022-12-18T01:46:51;7.00;85.20
23147;DHT22;11742;53.532;-1.478;2022-12-18T01:49:16;7.00;85.20
23147;DHT22;11742;53.532;-1.478;2022-12-18T01:51:42;7.00;85.10
23147;DHT22;11742;53.532;-1.478;2022-12-18T01:54:08;7.00;86.00
23147;DHT22;11742;53.532;-1.478;2022-12-18T01:56:33;7.00;85.10
23147;DHT22;11742;53.532;-1.478;2022-12-18T01:59:05;7.00;85.10
23147;DHT22;11742;53.532;-1.478;2022-12-18T02:01:32;7.00;85.10
23147;DHT22;11742;53.532;-1.478;2022-12-18T02:07:01;7.00;85.00
23147;DHT22;11742;53.532;-1.478;2022-12-18T02:09:46;6.90;85.00
23147;DHT22;11742;53.532;-1.478;2022-12-18T02:12:21;6.90;85.00
23147;DHT22;11742;53.532;-1.478;2022-12-18T02:15:24;6.90;84.90
23147;DHT22;11742;53.532;-1.478;2022-12-18T02:18:21;6.90;85.00
23147;DHT22;11742;53.532;-1.478;2022-12-18T02:28:53;6.80;84.70
23147;DHT22;11742;53.532;-1.478;2022-12-18T02:31:23;6.80;84.70
23147;DHT22;11742;53.532;-1.478;2022-12-18T02:33:52;6.80;84.70
23147;DHT22;11742;53.532;-1.478;2022-12-18T02:36:20;6.70;84.60
23147;DHT22;11742;53.532;-1.478;2022-12-18T02:38:47;6.70;84.70
23147;DHT22;11742;53.532;-1.478;2022-12-18T02:41:14;6.70;84.70
23147;DHT22;11742;53.532;-1.478;2022-12-18T02:43:49;6.70;84.60
23147;DHT22;11742;53.532;-1.478;2022-12-18T02:49:06;6.60;84.40
23147;DHT22;11742;53.532;-1.478;2022-12-18T02:51:55;6.70;84.40
23147;DHT22;11742;53.532;-1.478;2022-12-18T02:54:30;6.70;84.40
23147;DHT22;11742;53.532;-1.478;2022-12-18T02:57:05;6.60;84.40
23147;DHT22;11742;53.532;-1.478;2022-12-18T02:59:45;6.60;84.40
23147;DHT22;11742;53.532;-1.478;2022-12-18T03:02:29;6.60;84.40
23147;DHT22;11742;53.532;-1.478;2022-12-18T03:05:10;6.60;84.30
23147;DHT22;11742;53.532;-1.478;2022-12-18T03:07:49;6.60;84.10
23147;DHT22;11742;53.532;-1.478;2022-12-18T03:10:19;6.60;84.20
23147;DHT22;11742;53.532;-1.478;2022-12-18T03:12:52;6.50;83.90
23147;DHT22;11742;53.532;-1.478;2022-12-18T03:15:30;6.50;84.00
23147;DHT22;11742;53.532;-1.478;2022-12-18T03:18:07;6.50;84.00
23147;DHT22;11742;53.532;-1.478;2022-12-18T03:20:35;6.50;84.00
23147;DHT22;11742;53.532;-1.478;2022-12-18T03:23:11;6.50;83.80
23147;DHT22;11742;53.532;-1.478;2022-12-18T03:25:41;6.50;83.90
23147;DHT22;11742;53.532;-1.478;2022-12-18T03:28:12;6.50;83.90
23147;DHT22;11742;53.532;-1.478;2022-12-18T03:30:40;6.50;83.80
23147;DHT22;11742;53.532;-1.478;2022-12-18T03:34:09;6.40;83.90
23147;DHT22;11742;53.532;-1.478;2022-12-18T03:36:28;6.40;83.90
23147;DHT22;11742;53.532;-1.478;2022-12-18T03:38:53;6.40;83.70
23147;DHT22;11742;53.532;-1.478;2022-12-18T03:41:32;6.40;83.80
23147;DHT22;11742;53.532;-1.478;2022-12-18T03:49:36;6.30;83.80
23147;DHT22;11742;53.532;-1.478;2022-12-18T03:52:09;6.30;83.80
23147;DHT22;11742;53.532;-1.478;2022-12-18T03:54:36;6.30;83.70
23147;DHT22;11742;53.532;-1.478;2022-12-18T03:57:11;6.30;83.80
23147;DHT22;11742;53.532;-1.478;2022-12-18T03:59:39;6.30;83.80
23147;DHT22;11742;53.532;-1.478;2022-12-18T04:02:07;6.30;83.80
23147;DHT22;11742;53.532;-1.478;2022-12-18T04:04:35;6.20;83.70
23147;DHT22;11742;53.532;-1.478;2022-12-18T04:07:03;6.20;83.70
23147;DHT22;11742;53.532;-1.478;2022-12-18T04:09:30;6.20;83.60
23147;DHT22;11742;53.532;-1.478;2022-12-18T04:11:57;6.20;83.50
23147;DHT22;11742;53.532;-1.478;2022-12-18T04:14:22;6.20;83.60
23147;DHT22;11742;53.532;-1.478;2022-12-18T04:16:48;6.20;83.50
23147;DHT22;11742;53.532;-1.478;2022-12-18T04:19:14;6.20;83.50
23147;DHT22;11742;53.532;-1.478;2022-12-18T04:21:39;6.10;83.50
23147;DHT22;11742;53.532;-1.478;2022-12-18T04:24:05;6.10;83.40
23147;DHT22;11742;53.532;-1.478;2022-12-18T04:26:31;6.10;83.40
23147;DHT22;11742;53.532;-1.478;2022-12-18T04:28:56;6.10;83.40
23147;DHT22;11742;53.532;-1.478;2022-12-18T04:31:22;6.10;83.50
23147;DHT22;11742;53.532;-1.478;2022-12-18T04:33:48;6.10;83.50
23147;DHT22;11742;53.532;-1.478;2022-12-18T04:36:14;6.10;83.60
23147;DHT22;11742;53.532;-1.478;2022-12-18T04:38:39;6.10;83.60
23147;DHT22;11742;53.532;-1.478;2022-12-18T04:41:05;6.00;83.60
23147;DHT22;11742;53.532;-1.478;2022-12-18T04:43:30;6.00;83.60
23147;DHT22;11742;53.532;-1.478;2022-12-18T04:46:06;6.00;83.50
23147;DHT22;11742;53.532;-1.478;2022-12-18T04:48:33;6.00;83.60
23147;DHT22;11742;53.532;-1.478;2022-12-18T04:50:58;6.00;83.60
23147;DHT22;11742;53.532;-1.478;2022-12-18T04:53:24;6.00;83.50
23147;DHT22;11742;53.532;-1.478;2022-12-18T04:55:50;6.00;83.70
23147;DHT22;11742;53.532;-1.478;2022-12-18T04:58:15;6.00;83.60
23147;DHT22;11742;53.532;-1.478;2022-12-18T05:00:41;5.90;83.50
23147;DHT22;11742;53.532;-1.478;2022-12-18T05:03:07;5.90;83.60
23147;DHT22;11742;53.532;-1.478;2022-12-18T05:05:35;5.90;83.60
23147;DHT22;11742;53.532;-1.478;2022-12-18T05:08:01;5.90;83.50
23147;DHT22;11742;53.532;-1.478;2022-12-18T05:10:27;5.90;83.50
23147;DHT22;11742;53.532;-1.478;2022-12-18T05:12:52;5.90;83.60
23147;DHT22;11742;53.532;-1.478;2022-12-18T05:15:31;5.90;83.60
23147;DHT22;11742;53.532;-1.478;2022-12-18T05:17:58;5.80;83.60
23147;DHT22;11742;53.532;-1.478;2022-12-18T05:20:24;5.80;83.60
23147;DHT22;11742;53.532;-1.478;2022-12-18T05:22:51;5.80;83.50
23147;DHT22;11742;53.532;-1.478;2022-12-18T05:25:17;5.80;83.60
23147;DHT22;11742;53.532;-1.478;2022-12-18T05:27:43;5.80;83.60
23147;DHT22;11742;53.532;-1.478;2022-12-18T05:30:09;5.80;83.60
23147;DHT22;11742;53.532;-1.478;2022-12-18T05:32:35;5.80;83.60
23147;DHT22;11742;53.532;-1.478;2022-12-18T05:35:01;5.80;83.60
23147;DHT22;11742;53.532;-1.478;2022-12-18T05:37:27;5.80;83.60
23147;DHT22;11742;53.532;-1.478;2022-12-18T05:39:52;5.80;83.70
23147;DHT22;11742;53.532;-1.478;2022-12-18T05:42:18;5.70;83.70
23147;DHT22;11742;53.532;-1.478;2022-12-18T05:44:43;5.70;83.70
23147;DHT22;11742;53.532;-1.478;2022-12-18T05:47:09;5.70;83.70
23147;DHT22;11742;53.532;-1.478;2022-12-18T05:49:35;5.70;83.70
23147;DHT22;11742;53.532;-1.478;2022-12-18T05:52:01;5.70;83.70
23147;DHT22;11742;53.532;-1.478;2022-12-18T05:54:27;5.70;83.70
23147;DHT22;11742;53.532;-1.478;2022-12-18T05:56:53;5.70;83.80
23147;DHT22;11742;53.532;-1.478;2022-12-18T05:59:19;5.70;83.70
23147;DHT22;11742;53.532;-1.478;2022-12-18T06:01:45;5.70;84.60
23147;DHT22;11742;53.532;-1.478;2022-12-18T06:04:11;5.70;83.80
23147;DHT22;11742;53.532;-1.478;2022-12-18T06:06:37;5.70;83.80
23147;DHT22;11742;53.532;-1.478;2022-12-18T06:09:03;5.70;83.80
23147;DHT22;11742;53.532;-1.478;2022-12-18T06:11:34;5.70;83.80
23147;DHT22;11742;53.532;-1.478;2022-12-18T06:14:00;5.70;83.80
23147;DHT22;11742;53.532;-1.478;2022-12-18T06:16:30;5.60;83.80
23147;DHT22;11742;53.532;-1.478;2022-12-18T06:19:00;5.70;83.80
23147;DHT22;11742;53.532;-1.478;2022-12-18T06:21:27;5.70;83.90
23147;DHT22;11742;53.532;-1.478;2022-12-18T06:23:53;5.60;83.80
23147;DHT22;11742;53.532;-1.478;2022-12-18T06:26:19;5.70;83.90
23147;DHT22;11742;53.532;-1.478;2022-12-18T06:28:45;5.60;83.80
23147;DHT22;11742;53.532;-1.478;2022-12-18T06:31:10;5.60;84.60
23147;DHT22;11742;53.532;-1.478;2022-12-18T06:33:36;5.60;83.80
23147;DHT22;11742;53.532;-1.478;2022-12-18T06:36:03;5.60;83.80
23147;DHT22;11742;53.532;-1.478;2022-12-18T06:38:30;5.60;83.80
23147;DHT22;11742;53.532;-1.478;2022-12-18T06:40:56;5.60;83.80
23147;DHT22;11742;53.532;-1.478;2022-12-18T06:43:21;5.60;83.80
23147;DHT22;11742;53.532;-1.478;2022-12-18T06:45:47;5.60;83.80
23147;DHT22;11742;53.532;-1.478;2022-12-18T06:48:20;5.60;83.90
23147;DHT22;11742;53.532;-1.478;2022-12-18T06:50:46;5.60;83.90
23147;DHT22;11742;53.532;-1.478;2022-12-18T06:53:12;5.60;83.80
23147;DHT22;11742;53.532;-1.478;2022-12-18T06:55:38;5.60;83.90
23147;DHT22;11742;53.532;-1.478;2022-12-18T06:58:04;5.60;83.90
23147;DHT22;11742;53.532;-1.478;2022-12-18T07:00:29;5.60;83.90
23147;DHT22;11742;53.532;-1.478;2022-12-18T07:02:55;5.60;83.90
23147;DHT22;11742;53.532;-1.478;2022-12-18T07:05:21;5.60;83.90
23147;DHT22;11742;53.532;-1.478;2022-12-18T07:07:46;5.60;83.90
23147;DHT22;11742;53.532;-1.478;2022-12-18T07:10:12;5.60;84.00
23147;DHT22;11742;53.532;-1.478;2022-12-18T07:12:37;5.60;83.90
23147;DHT22;11742;53.532;-1.478;2022-12-18T07:15:03;5.60;83.90
23147;DHT22;11742;53.532;-1.478;2022-12-18T07:17:29;5.60;83.90
23147;DHT22;11742;53.532;-1.478;2022-12-18T07:19:55;5.60;83.90
23147;DHT22;11742;53.532;-1.478;2022-12-18T07:22:21;5.60;84.00
23147;DHT22;11742;53.532;-1.478;2022-12-18T07:24:46;5.60;84.00
23147;DHT22;11742;53.532;-1.478;2022-12-18T07:27:12;5.60;83.90
23147;DHT22;11742;53.532;-1.478;2022-12-18T07:29:38;5.60;84.00
23147;DHT22;11742;53.532;-1.478;2022-12-18T07:32:04;5.60;84.00
23147;DHT22;11742;53.532;-1.478;2022-12-18T07:34:29;5.60;84.00
23147;DHT22;11742;53.532;-1.478;2022-12-18T07:36:55;5.50;84.00
23147;DHT22;11742;53.532;-1.478;2022-12-18T07:39:20;5.50;84.00
23147;DHT22;11742;53.532;-1.478;2022-12-18T07:41:46;5.50;84.00
23147;DHT22;11742;53.532;-1.478;2022-12-18T07:44:32;5.50;84.00
23147;DHT22;11742;53.532;-1.478;2022-12-18T07:46:57;5.50;84.00
23147;DHT22;11742;53.532;-1.478;2022-12-18T07:49:23;5.50;84.00
23147;DHT22;11742;53.532;-1.478;2022-12-18T07:51:48;5.50;84.00
23147;DHT22;11742;53.532;-1.478;2022-12-18T07:54:14;5.50;84.00
23147;DHT22;11742;53.532;-1.478;2022-12-18T07:56:40;5.50;84.10
23147;DHT22;11742;53.532;-1.478;2022-12-18T07:59:06;5.50;84.00
23147;DHT22;11742;53.532;-1.478;2022-12-18T08:01:31;5.50;84.10
23147;DHT22;11742;53.532;-1.478;2022-12-18T08:03:58;5.50;84.00
23147;DHT22;11742;53.532;-1.478;2022-12-18T08:06:24;5.50;84.10
23147;DHT22;11742;53.532;-1.478;2022-12-18T08:08:51;5.50;84.00
23147;DHT22;11742;53.532;-1.478;2022-12-18T08:11:17;5.50;84.10
23147;DHT22;11742;53.532;-1.478;2022-12-18T08:13:43;5.50;84.10
23147;DHT22;11742;53.532;-1.478;2022-12-18T08:16:09;5.40;84.00
23147;DHT22;11742;53.532;-1.478;2022-12-18T08:18:36;5.40;84.00
23147;DHT22;11742;53.532;-1.478;2022-12-18T08:21:17;5.50;84.10
23147;DHT22;11742;53.532;-1.478;2022-12-18T08:23:43;5.40;84.00
23147;DHT22;11742;53.532;-1.478;2022-12-18T08:26:10;5.40;84.10
23147;DHT22;11742;53.532;-1.478;2022-12-18T08:28:36;5.40;84.00
23147;DHT22;11742;53.532;-1.478;2022-12-18T08:31:02;5.40;84.00
23147;DHT22;11742;53.532;-1.478;2022-12-18T08:33:27;5.40;84.00
23147;DHT22;11742;53.532;-1.478;2022-12-18T08:35:53;5.40;84.00
23147;DHT22;11742;53.532;-1.478;2022-12-18T08:38:19;5.40;84.00
23147;DHT22;11742;53.532;-1.478;2022-12-18T08:40:45;5.40;84.10
23147;DHT22;11742;53.532;-1.478;2022-12-18T08:43:11;5.40;84.10
23147;DHT22;11742;53.532;-1.478;2022-12-18T08:46:12;5.40;84.00
23147;DHT22;11742;53.532;-1.478;2022-12-18T08:48:37;5.40;84.00
23147;DHT22;11742;53.532;-1.478;2022-12-18T08:51:03;5.40;84.00
23147;DHT22;11742;53.532;-1.478;2022-12-18T08:53:29;5.40;84.10
23147;DHT22;11742;53.532;-1.478;2022-12-18T08:55:56;5.40;84.00
23147;DHT22;11742;53.532;-1.478;2022-12-18T08:58:22;5.40;84.00
23147;DHT22;11742;53.532;-1.478;2022-12-18T09:00:47;5.40;84.10
23147;DHT22;11742;53.532;-1.478;2022-12-18T09:03:15;5.40;84.00
23147;DHT22;11742;53.532;-1.478;2022-12-18T09:05:41;5.40;84.00
23147;DHT22;11742;53.532;-1.478;2022-12-18T09:08:07;5.40;84.00
23147;DHT22;11742;53.532;-1.478;2022-12-18T09:10:33;5.40;84.00
23147;DHT22;11742;53.532;-1.478;2022-12-18T09:12:59;5.40;84.00
23147;DHT22;11742;53.532;-1.478;2022-12-18T09:15:24;5.40;84.00
23147;DHT22;11742;53.532;-1.478;2022-12-18T09:17:50;5.40;84.10
23147;DHT22;11742;53.532;-1.478;2022-12-18T09:20:18;5.40;84.00
23147;DHT22;11742;53.532;-1.478;2022-12-18T09:22:44;5.40;84.00
23147;DHT22;11742;53.532;-1.478;2022-12-18T09:25:10;5.40;84.00
23147;DHT22;11742;53.532;-1.478;2022-12-18T09:27:35;5.40;84.00
23147;DHT22;11742;53.532;-1.478;2022-12-18T09:30:01;5.40;84.00
23147;DHT22;11742;53.532;-1.478;2022-12-18T09:32:27;5.40;84.10
23147;DHT22;11742;53.532;-1.478;2022-12-18T09:34:53;5.40;84.10
23147;DHT22;11742;53.532;-1.478;2022-12-18T09:37:18;5.40;84.10
23147;DHT22;11742;53.532;-1.478;2022-12-18T09:39:44;5.40;84.10
23147;DHT22;11742;53.532;-1.478;2022-12-18T09:42:21;5.40;84.10
23147;DHT22;11742;53.532;-1.478;2022-12-18T09:44:50;5.40;84.10
23147;DHT22;11742;53.532;-1.478;2022-12-18T09:47:36;5.40;84.00
23147;DHT22;11742;53.532;-1.478;2022-12-18T09:50:06;5.40;84.10
23147;DHT22;11742;53.532;-1.478;2022-12-18T09:52:45;5.40;84.10
23147;DHT22;11742;53.532;-1.478;2022-12-18T09:57:55;5.40;84.10
23147;DHT22;11742;53.532;-1.478;2022-12-18T10:00:24;5.40;84.10
23147;DHT22;11742;53.532;-1.478;2022-12-18T10:02:52;5.40;84.10
23147;DHT22;11742;53.532;-1.478;2022-12-18T10:08:39;5.40;84.10
23147;DHT22;11742;53.532;-1.478;2022-12-18T10:22:57;5.40;84.10
23147;DHT22;11742;53.532;-1.478;2022-12-18T10:25:40;5.40;84.10
23147;DHT22;11742;53.532;-1.478;2022-12-18T10:28:12;5.30;84.00
23147;DHT22;11742;53.532;-1.478;2022-12-18T10:30:39;5.40;84.10
23147;DHT22;11742;53.532;-1.478;2022-12-18T10:33:05;5.40;84.10
23147;DHT22;11742;53.532;-1.478;2022-12-18T10:35:31;5.30;84.00
23147;DHT22;11742;53.532;-1.478;2022-12-18T10:43:32;5.40;84.10
23147;DHT22;11742;53.532;-1.478;2022-12-18T10:53:54;5.30;84.10
23147;DHT22;11742;53.532;-1.478;2022-12-18T10:56:20;5.30;84.10
23147;DHT22;11742;53.532;-1.478;2022-12-18T10:58:57;5.40;84.10
23147;DHT22;11742;53.532;-1.478;2022-12-18T11:01:23;5.30;84.10
23147;DHT22;11742;53.532;-1.478;2022-12-18T11:03:59;5.40;84.20
23147;DHT22;11742;53.532;-1.478;2022-12-18T11:06:26;5.40;84.10
23147;DHT22;11742;53.532;-1.478;2022-12-18T11:09:20;5.30;84.00
23147;DHT22;11742;53.532;-1.478;2022-12-18T11:11:54;5.40;84.20
23147;DHT22;11742;53.532;-1.478;2022-12-18T11:14:30;5.40;84.20
23147;DHT22;11742;53.532;-1.478;2022-12-18T11:16:58;5.40;84.20
23147;DHT22;11742;53.532;-1.478;2022-12-18T11:19:36;5.40;84.10
23147;DHT22;11742;53.532;-1.478;2022-12-18T11:22:19;5.40;84.20
23147;DHT22;11742;53.532;-1.478;2022-12-18T11:27:38;5.40;84.20
23147;DHT22;11742;53.532;-1.478;2022-12-18T11:30:28;5.40;84.20
23147;DHT22;11742;53.532;-1.478;2022-12-18T11:38:04;5.40;84.30
23147;DHT22;11742;53.532;-1.478;2022-12-18T11:40:35;5.40;84.40
23147;DHT22;11742;53.532;-1.478;2022-12-18T11:43:21;5.30;84.20
23147;DHT22;11742;53.532;-1.478;2022-12-18T11:45:59;5.40;84.30
23147;DHT22;11742;53.532;-1.478;2022-12-18T11:48:32;5.30;84.30
23147;DHT22;11742;53.532;-1.478;2022-12-18T11:50:58;5.40;84.30
23147;DHT22;11742;53.532;-1.478;2022-12-18T11:53:26;5.40;84.30
23147;DHT22;11742;53.532;-1.478;2022-12-18T11:59:17;5.40;84.50
23147;DHT22;11742;53.532;-1.478;2022-12-18T12:04:34;5.30;84.40
23147;DHT22;11742;53.532;-1.478;2022-12-18T12:07:42;5.30;84.40
23147;DHT22;11742;53.532;-1.478;2022-12-18T12:22:13;5.40;84.70
23147;DHT22;11742;53.532;-1.478;2022-12-18T12:25:15;5.40;84.70
23147;DHT22;11742;53.532;-1.478;2022-12-18T12:30:57;5.40;84.60
23147;DHT22;11742;53.532;-1.478;2022-12-18T12:34:17;5.40;84.60
23147;DHT22;11742;53.532;-1.478;2022-12-18T12:36:39;5.40;84.70
23147;DHT22;11742;53.532;-1.478;2022-12-18T12:39:11;5.40;84.70
23147;DHT22;11742;53.532;-1.478;2022-12-18T12:41:39;5.40;84.70
23147;DHT22;11742;53.532;-1.478;2022-12-18T12:44:51;5.40;84.70
23147;DHT22;11742;53.532;-1.478;2022-12-18T12:47:38;5.40;84.70
23147;DHT22;11742;53.532;-1.478;2022-12-18T12:50:14;5.40;84.70
23147;DHT22;11742;53.532;-1.478;2022-12-18T12:52:42;5.40;84.70
23147;DHT22;11742;53.532;-1.478;2022-12-18T12:55:16;5.40;84.70
23147;DHT22;11742;53.532;-1.478;2022-12-18T12:57:51;5.40;84.60
23147;DHT22;11742;53.532;-1.478;2022-12-18T13:00:21;5.50;84.80
23147;DHT22;11742;53.532;-1.478;2022-12-18T13:05:53;5.40;84.80
23147;DHT22;11742;53.532;-1.478;2022-12-18T13:08:30;5.50;84.80
23147;DHT22;11742;53.532;-1.478;2022-12-18T13:10:57;5.50;84.80
23147;DHT22;11742;53.532;-1.478;2022-12-18T13:13:52;5.50;84.80
23147;DHT22;11742;53.532;-1.478;2022-12-18T13:16:23;5.50;84.90
23147;DHT22;11742;53.532;-1.478;2022-12-18T13:18:51;5.50;84.80
23147;DHT22;11742;53.532;-1.478;2022-12-18T13:21:29;5.50;84.80
23147;DHT22;11742;53.532;-1.478;2022-12-18T13:23:56;5.50;84.80
23147;DHT22;11742;53.532;-1.478;2022-12-18T13:28:52;5.50;84.70
23147;DHT22;11742;53.532;-1.478;2022-12-18T13:34:20;5.60;84.80
23147;DHT22;11742;53.532;-1.478;2022-12-18T13:36:46;5.60;84.80
23147;DHT22;11742;53.532;-1.478;2022-12-18T13:42:34;5.60;84.90
23147;DHT22;11742;53.532;-1.478;2022-12-18T13:44:58;5.60;84.80
23147;DHT22;11742;53.532;-1.478;2022-12-18T13:47:35;5.60;84.80
23147;DHT22;11742;53.532;-1.478;2022-12-18T13:50:23;5.60;84.90
23147;DHT22;11742;53.532;-1.478;2022-12-18T13:52:51;5.60;85.80
23147;DHT22;11742;53.532;-1.478;2022-12-18T13:55:19;5.60;84.90
23147;DHT22;11742;53.532;-1.478;2022-12-18T13:57:45;5.60;84.90
23147;DHT22;11742;53.532;-1.478;2022-12-18T14:00:26;5.60;84.90
23147;DHT22;11742;53.532;-1.478;2022-12-18T14:02:54;5.60;84.90
23147;DHT22;11742;53.532;-1.478;2022-12-18T14:05:34;5.60;84.90
23147;DHT22;11742;53.532;-1.478;2022-12-18T14:08:10;5.60;85.00
23147;DHT22;11742;53.532;-1.478;2022-12-18T14:10:43;5.60;84.90
23147;DHT22;11742;53.532;-1.478;2022-12-18T14:13:11;5.60;85.00
23147;DHT22;11742;53.532;-1.478;2022-12-18T14:15:42;5.60;85.10
23147;DHT22;11742;53.532;-1.478;2022-12-18T14:20:43;5.60;85.10
23147;DHT22;11742;53.532;-1.478;2022-12-18T14:23:39;5.70;85.30
23147;DHT22;11742;53.532;-1.478;2022-12-18T14:26:28;5.70;85.40
23147;DHT22;11742;53.532;-1.478;2022-12-18T14:29:00;5.60;85.20
23147;DHT22;11742;53.532;-1.478;2022-12-18T14:31:28;5.70;85.20
23147;DHT22;11742;53.532;-1.478;2022-12-18T14:33:55;5.70;85.20
23147;DHT22;11742;53.532;-1.478;2022-12-18T14:36:24;5.70;85.20
23147;DHT22;11742;53.532;-1.478;2022-12-18T14:38:58;5.70;85.20
23147;DHT22;11742;53.532;-1.478;2022-12-18T14:41:24;5.70;85.20
23147;DHT22;11742;53.532;-1.478;2022-12-18T14:43:53;5.70;85.20
23147;DHT22;11742;53.532;-1.478;2022-12-18T14:46:35;5.70;85.20
23147;DHT22;11742;53.532;-1.478;2022-12-18T14:49:04;5.70;85.20
23147;DHT22;11742;53.532;-1.478;2022-12-18T14:51:31;5.70;85.20
23147;DHT22;11742;53.532;-1.478;2022-12-18T14:56:34;5.70;85.40
23147;DHT22;11742;53.532;-1.478;2022-12-18T14:59:02;5.70;85.30
23147;DHT22;11742;53.532;-1.478;2022-12-18T15:01:39;5.70;85.30
23147;DHT22;11742;53.532;-1.478;2022-12-18T15:04:35;5.70;85.30
23147;DHT22;11742;53.532;-1.478;2022-12-18T15:09:39;5.70;85.40
23147;DHT22;11742;53.532;-1.478;2022-12-18T15:12:21;5.70;85.40
23147;DHT22;11742;53.532;-1.478;2022-12-18T15:14:48;5.70;85.40
23147;DHT22;11742;53.532;-1.478;2022-12-18T15:17:22;5.70;85.40
23147;DHT22;11742;53.532;-1.478;2022-12-18T15:19:50;5.70;85.50
23147;DHT22;11742;53.532;-1.478;2022-12-18T15:22:25;5.70;85.50
23147;DHT22;11742;53.532;-1.478;2022-12-18T15:24:51;5.70;85.40
23147;DHT22;11742;53.532;-1.478;2022-12-18T15:27:35;5.70;85.50
23147;DHT22;11742;53.532;-1.478;2022-12-18T15:32:36;5.70;85.50
23147;DHT22;11742;53.532;-1.478;2022-12-18T15:35:18;5.70;85.50
23147;DHT22;11742;53.532;-1.478;2022-12-18T15:37:44;5.70;85.60
23147;DHT22;11742;53.532;-1.478;2022-12-18T15:40:19;5.70;85.60
23147;DHT22;11742;53.532;-1.478;2022-12-18T15:42:46;5.70;85.70
23147;DHT22;11742;53.532;-1.478;2022-12-18T15:45:30;5.70;85.60
23147;DHT22;11742;53.532;-1.478;2022-12-18T15:47:56;5.70;85.60
23147;DHT22;11742;53.532;-1.478;2022-12-18T15:50:22;5.70;85.70
23147;DHT22;11742;53.532;-1.478;2022-12-18T15:52:50;5.70;85.70
23147;DHT22;11742;53.532;-1.478;2022-12-18T15:55:22;5.70;85.80
23147;DHT22;11742;53.532;-1.478;2022-12-18T15:58:07;5.70;85.90
23147;DHT22;11742;53.532;-1.478;2022-12-18T16:00:35;5.70;85.80
23147;DHT22;11742;53.532;-1.478;2022-12-18T16:03:03;5.80;85.90
23147;DHT22;11742;53.532;-1.478;2022-12-18T16:05:28;5.70;86.00
23147;DHT22;11742;53.532;-1.478;2022-12-18T16:07:54;5.80;86.00
23147;DHT22;11742;53.532;-1.478;2022-12-18T16:10:20;5.80;86.00
23147;DHT22;11742;53.532;-1.478;2022-12-18T16:12:46;5.80;86.10
23147;DHT22;11742;53.532;-1.478;2022-12-18T16:15:15;5.80;86.10
23147;DHT22;11742;53.532;-1.478;2022-12-18T16:17:42;5.70;86.10
23147;DHT22;11742;53.532;-1.478;2022-12-18T16:20:16;5.70;86.00
23147;DHT22;11742;53.532;-1.478;2022-12-18T16:22:44;5.80;86.20
23147;DHT22;11742;53.532;-1.478;2022-12-18T16:25:22;5.80;86.20
23147;DHT22;11742;53.532;-1.478;2022-12-18T16:27:50;5.80;86.20
23147;DHT22;11742;53.532;-1.478;2022-12-18T16:30:20;5.80;86.20
23147;DHT22;11742;53.532;-1.478;2022-12-18T16:32:46;5.80;86.30
23147;DHT22;11742;53.532;-1.478;2022-12-18T16:35:13;5.80;86.70
23147;DHT22;11742;53.532;-1.478;2022-12-18T16:37:40;5.80;86.30
23147;DHT22;11742;53.532;-1.478;2022-12-18T16:40:08;5.80;86.30
23147;DHT22;11742;53.532;-1.478;2022-12-18T16:42:42;5.80;86.40
23147;DHT22;11742;53.532;-1.478;2022-12-18T16:45:08;5.80;86.40
23147;DHT22;11742;53.532;-1.478;2022-12-18T16:47:36;5.80;86.40
23147;DHT22;11742;53.532;-1.478;2022-12-18T16:50:03;5.80;86.60
23147;DHT22;11742;53.532;-1.478;2022-12-18T16:52:28;5.80;86.50
23147;DHT22;11742;53.532;-1.478;2022-12-18T16:54:54;5.80;86.50
23147;DHT22;11742;53.532;-1.478;2022-12-18T16:57:21;5.80;86.60
23147;DHT22;11742;53.532;-1.478;2022-12-18T16:59:47;5.80;87.50
23147;DHT22;11742;53.532;-1.478;2022-12-18T17:02:21;5.80;86.50
23147;DHT22;11742;53.532;-1.478;2022-12-18T17:04:48;5.80;86.60
23147;DHT22;11742;53.532;-1.478;2022-12-18T17:07:14;5.80;86.50
23147;DHT22;11742;53.532;-1.478;2022-12-18T17:09:41;5.80;87.40
23147;DHT22;11742;53.532;-1.478;2022-12-18T17:12:07;5.80;86.60
23147;DHT22;11742;53.532;-1.478;2022-12-18T17:14:35;5.80;86.60
23147;DHT22;11742;53.532;-1.478;2022-12-18T17:17:01;5.80;86.60
23147;DHT22;11742;53.532;-1.478;2022-12-18T17:19:27;5.90;86.70
23147;DHT22;11742;53.532;-1.478;2022-12-18T17:21:53;5.90;86.70
23147;DHT22;11742;53.532;-1.478;2022-12-18T17:24:20;5.90;86.70
23147;DHT22;11742;53.532;-1.478;2022-12-18T17:26:46;5.90;86.70
23147;DHT22;11742;53.532;-1.478;2022-12-18T17:29:15;5.90;86.70